createdAt,value
2019-04-16T00:00:22.523Z,0
2019-04-16T00:01:22.761Z,0
2019-04-16T00:02:25.541Z,0
2019-04-16T00:03:27.511Z,0
2019-04-16T00:04:27.219Z,0
2019-04-16T00:05:27.425Z,0
2019-04-16T00:06:22.964Z,0
2019-04-16T00:07:22.789Z,0
2019-04-16T00:08:33.850Z,0
2019-04-16T00:09:22.706Z,0
2019-04-16T00:10:22.688Z,0
2019-04-16T00:11:22.444Z,0
2019-04-16T00:12:22.695Z,0
2019-04-16T00:13:22.431Z,0
2019-04-16T00:14:22.913Z,0
2019-04-16T00:15:22.652Z,0
2019-04-16T00:16:22.899Z,0
2019-04-16T00:17:23.404Z,0
2019-04-16T00:18:25.242Z,0
2019-04-16T00:19:22.371Z,0
2019-04-16T00:20:22.645Z,0
2019-04-16T00:21:22.390Z,0
2019-04-16T00:22:22.379Z,0
2019-04-16T00:23:22.588Z,0
2019-04-16T00:24:25.484Z,0
2019-04-16T00:25:22.595Z,0
2019-04-16T00:26:26.431Z,0
2019-04-16T00:27:22.323Z,0
2019-04-16T00:28:22.810Z,0
2019-04-16T00:29:22.577Z,0
2019-04-16T00:30:22.285Z,0
2019-04-16T00:31:22.780Z,0
2019-04-16T00:32:25.779Z,0
2019-04-16T00:33:22.535Z,0
2019-04-16T00:34:22.513Z,0
2019-04-16T00:35:23.262Z,0
2019-04-16T00:36:25.479Z,0
2019-04-16T00:37:27.274Z,0
2019-04-16T00:38:39.651Z,0
2019-04-16T00:39:26.828Z,0
2019-04-16T00:40:26.337Z,0
2019-04-16T00:41:22.464Z,0
2019-04-16T00:42:22.214Z,0
2019-04-16T00:43:22.446Z,0
2019-04-16T00:44:22.440Z,0
2019-04-16T00:45:22.674Z,0
2019-04-16T00:46:22.674Z,0
2019-04-16T00:47:21.931Z,0
2019-04-16T00:48:22.664Z,0
2019-04-16T00:49:26.237Z,0
2019-04-16T00:50:22.674Z,0
2019-04-16T00:51:22.637Z,0
2019-04-16T00:52:22.699Z,0
2019-04-16T00:53:22.140Z,0
2019-04-16T00:54:22.118Z,0
2019-04-16T00:55:22.099Z,0
2019-04-16T00:56:23.786Z,0
2019-04-16T00:57:25.278Z,0
2019-04-16T00:58:26.821Z,0
2019-04-16T00:59:26.145Z,0
2019-04-16T01:00:22.579Z,0
2019-04-16T01:01:22.322Z,0
2019-04-16T01:02:22.356Z,0
2019-04-16T01:03:22.294Z,0
2019-04-16T01:04:23.305Z,0
2019-04-16T01:05:22.530Z,0
2019-04-16T01:06:22.271Z,0
2019-04-16T01:07:22.281Z,0
2019-04-16T01:08:22.522Z,0
2019-04-16T01:09:22.253Z,0
2019-04-16T01:10:22.482Z,0
2019-04-16T01:11:22.487Z,0
2019-04-16T01:12:22.234Z,0
2019-04-16T01:13:26.367Z,0
2019-04-16T01:14:24.175Z,0
2019-04-16T01:15:21.977Z,0
2019-04-16T01:16:22.188Z,0
2019-04-16T01:17:22.187Z,0
2019-04-16T01:18:21.929Z,0
2019-04-16T01:19:22.208Z,0
2019-04-16T01:20:22.172Z,0
2019-04-16T01:21:22.405Z,0
2019-04-16T01:22:23.035Z,0
2019-04-16T01:23:25.049Z,0
2019-04-16T01:24:26.539Z,0
2019-04-16T01:25:27.692Z,0
2019-04-16T01:26:24.157Z,0
2019-04-16T01:27:22.097Z,0
2019-04-16T01:28:22.097Z,0
2019-04-16T01:29:21.831Z,0
2019-04-16T01:30:22.324Z,0
2019-04-16T01:31:22.336Z,0
2019-04-16T01:32:22.338Z,0
2019-04-16T01:33:22.536Z,0
2019-04-16T01:34:29.250Z,0
2019-04-16T01:35:26.064Z,0
2019-04-16T01:36:22.805Z,0
2019-04-16T01:37:25.474Z,0
2019-04-16T01:38:22.076Z,0
2019-04-16T01:39:25.343Z,0
2019-04-16T01:40:25.036Z,0
2019-04-16T01:41:26.605Z,0
2019-04-16T01:42:25.878Z,0
2019-04-16T01:43:25.454Z,0
2019-04-16T01:44:22.209Z,0
2019-04-16T01:45:21.966Z,0
2019-04-16T01:46:21.961Z,0
2019-04-16T01:47:21.958Z,0
2019-04-16T01:48:22.180Z,0
2019-04-16T01:49:22.177Z,0
2019-04-16T01:50:21.927Z,0
2019-04-16T01:51:22.824Z,0
2019-04-16T01:52:25.970Z,0
2019-04-16T01:53:24.068Z,0
2019-04-16T01:54:25.118Z,0
2019-04-16T01:55:25.476Z,0
2019-04-16T01:56:21.620Z,0
2019-04-16T01:57:22.184Z,0
2019-04-16T01:58:21.848Z,0
2019-04-16T01:59:21.599Z,0
2019-04-16T02:00:22.075Z,0
2019-04-16T02:01:22.084Z,0
2019-04-16T02:02:22.654Z,0
2019-04-16T02:03:24.443Z,0
2019-04-16T02:04:26.864Z,0
2019-04-16T02:05:24.962Z,0
2019-04-16T02:06:25.578Z,0
2019-04-16T02:07:21.774Z,0
2019-04-16T02:08:21.761Z,0
2019-04-16T02:09:34.042Z,0
2019-04-16T02:10:21.747Z,0
2019-04-16T02:11:21.766Z,0
2019-04-16T02:12:21.981Z,0
2019-04-16T02:13:23.121Z,0
2019-04-16T02:14:27.164Z,0
2019-04-16T02:15:26.285Z,0
2019-04-16T02:16:22.299Z,0
2019-04-16T02:17:26.647Z,0
2019-04-16T02:18:21.683Z,0
2019-04-16T02:19:21.196Z,0
2019-04-16T02:20:21.680Z,0
2019-04-16T02:21:21.913Z,0
2019-04-16T02:22:21.412Z,0
2019-04-16T02:23:23.950Z,0
2019-04-16T02:24:25.604Z,0
2019-04-16T02:25:25.942Z,0
2019-04-16T02:26:25.346Z,0
2019-04-16T02:27:23.416Z,0
2019-04-16T02:28:27.848Z,0
2019-04-16T02:29:21.917Z,0
2019-04-16T02:30:21.900Z,0
2019-04-16T02:31:23.544Z,0
2019-04-16T02:32:21.835Z,0
2019-04-16T02:33:21.830Z,0
2019-04-16T02:34:21.862Z,0
2019-04-16T02:35:25.438Z,0
2019-04-16T02:36:21.571Z,0
2019-04-16T02:37:21.531Z,0
2019-04-16T02:38:21.764Z,0
2019-04-16T02:39:47.456Z,0
2019-04-16T02:40:25.673Z,0
2019-04-16T02:41:25.685Z,0
2019-04-16T02:42:21.728Z,0
2019-04-16T02:43:21.246Z,0
2019-04-16T02:44:24.152Z,0
2019-04-16T02:45:27.694Z,0
2019-04-16T02:46:21.694Z,0
2019-04-16T02:47:21.459Z,0
2019-04-16T02:48:24.082Z,0
2019-04-16T02:49:27.668Z,0
2019-04-16T02:50:21.442Z,0
2019-04-16T02:51:21.432Z,0
2019-04-16T02:52:23.680Z,0
2019-04-16T02:53:26.795Z,0
2019-04-16T02:54:21.426Z,0
2019-04-16T02:55:21.428Z,0
2019-04-16T02:56:26.185Z,0
2019-04-16T02:57:28.374Z,0
2019-04-16T02:58:21.373Z,0
2019-04-16T02:59:21.616Z,0
2019-04-16T03:00:25.258Z,0
2019-04-16T03:01:25.497Z,0
2019-04-16T03:02:25.075Z,0
2019-04-16T03:03:22.189Z,0
2019-04-16T03:04:21.078Z,0
2019-04-16T03:05:21.301Z,0
2019-04-16T03:06:24.206Z,0
2019-04-16T03:07:21.312Z,0
2019-04-16T03:08:21.021Z,0
2019-04-16T03:09:21.273Z,0
2019-04-16T03:10:21.520Z,0
2019-04-16T03:11:25.019Z,0
2019-04-16T03:12:25.113Z,0
2019-04-16T03:13:25.731Z,0
2019-04-16T03:14:20.961Z,0
2019-04-16T03:15:20.744Z,0
2019-04-16T03:16:21.203Z,0
2019-04-16T03:17:21.209Z,0
2019-04-16T03:18:22.646Z,0
2019-04-16T03:19:26.282Z,0
2019-04-16T03:20:25.570Z,0
2019-04-16T03:21:21.410Z,0
2019-04-16T03:22:21.409Z,0
2019-04-16T03:23:21.391Z,0
2019-04-16T03:24:20.881Z,0
2019-04-16T03:25:21.635Z,0
2019-04-16T03:26:24.788Z,0
2019-04-16T03:27:26.797Z,0
2019-04-16T03:28:23.483Z,0
2019-04-16T03:29:21.331Z,0
2019-04-16T03:30:21.412Z,0
2019-04-16T03:31:28.576Z,0
2019-04-16T03:32:22.518Z,0
2019-04-16T03:33:22.235Z,0
2019-04-16T03:34:25.828Z,0
2019-04-16T03:35:24.981Z,0
2019-04-16T03:36:21.022Z,0
2019-04-16T03:37:20.776Z,0
2019-04-16T03:38:20.776Z,0
2019-04-16T03:39:21.195Z,0
2019-04-16T03:40:29.897Z,0
2019-04-16T03:41:21.240Z,0
2019-04-16T03:42:20.806Z,0
2019-04-16T03:43:20.969Z,0
2019-04-16T03:44:21.193Z,0
2019-04-16T03:45:20.495Z,0
2019-04-16T03:46:21.452Z,0
2019-04-16T03:47:25.811Z,0
2019-04-16T03:48:23.427Z,0
2019-04-16T03:49:20.920Z,0
2019-04-16T03:50:20.902Z,0
2019-04-16T03:51:21.220Z,0
2019-04-16T03:52:21.166Z,0
2019-04-16T03:53:24.670Z,0
2019-04-16T03:54:26.315Z,0
2019-04-16T03:55:24.906Z,0
2019-04-16T03:56:20.626Z,4
2019-04-16T03:57:21.097Z,4
2019-04-16T03:58:20.592Z,0
2019-04-16T03:59:20.828Z,0
2019-04-16T04:00:21.087Z,4
2019-04-16T04:01:22.309Z,0
2019-04-16T04:02:27.270Z,4
2019-04-16T04:03:25.790Z,4
2019-04-16T04:04:20.530Z,4
2019-04-16T04:05:21.036Z,4
2019-04-16T04:06:21.031Z,4
2019-04-16T04:07:23.227Z,8
2019-04-16T04:08:24.613Z,8
2019-04-16T04:09:26.370Z,8
2019-04-16T04:10:39.315Z,12
2019-04-16T04:11:20.470Z,16
2019-04-16T04:12:21.152Z,16
2019-04-16T04:13:24.564Z,20
2019-04-16T04:14:24.912Z,24
2019-04-16T04:15:25.684Z,24
2019-04-16T04:16:20.456Z,32
2019-04-16T04:17:20.424Z,36
2019-04-16T04:18:20.541Z,40
2019-04-16T04:19:23.103Z,48
2019-04-16T04:20:24.532Z,56
2019-04-16T04:21:25.839Z,68
2019-04-16T04:22:22.688Z,72
2019-04-16T04:23:20.410Z,84
2019-04-16T04:24:20.607Z,96
2019-04-16T04:25:20.618Z,112
2019-04-16T04:26:20.826Z,124
2019-04-16T04:27:25.909Z,144
2019-04-16T04:28:25.664Z,160
2019-04-16T04:29:26.274Z,176
2019-04-16T04:30:20.051Z,196
2019-04-16T04:31:20.549Z,216
2019-04-16T04:32:21.345Z,240
2019-04-16T04:33:20.524Z,264
2019-04-16T04:34:23.595Z,292
2019-04-16T04:35:24.771Z,320
2019-04-16T04:36:28.786Z,352
2019-04-16T04:37:20.293Z,380
2019-04-16T04:38:20.548Z,412
2019-04-16T04:39:22.841Z,444
2019-04-16T04:40:23.614Z,480
2019-04-16T04:41:25.046Z,516
2019-04-16T04:42:25.517Z,556
2019-04-16T04:43:20.686Z,596
2019-04-16T04:44:20.994Z,636
2019-04-16T04:45:20.530Z,676
2019-04-16T04:46:21.957Z,720
2019-04-16T04:47:24.996Z,764
2019-04-16T04:48:25.614Z,812
2019-04-16T04:49:20.159Z,856
2019-04-16T04:50:20.116Z,900
2019-04-16T04:51:19.871Z,948
2019-04-16T04:52:21.956Z,1000
2019-04-16T04:53:25.402Z,1052
2019-04-16T04:54:24.235Z,1100
2019-04-16T04:55:19.923Z,1152
2019-04-16T04:56:27.629Z,1212
2019-04-16T04:57:20.051Z,1260
2019-04-16T04:58:20.591Z,1320
2019-04-16T04:59:19.807Z,1428
2019-04-16T05:00:20.548Z,1572
2019-04-16T05:01:21.192Z,1704
2019-04-16T05:02:22.075Z,1788
2019-04-16T05:03:23.787Z,1832
2019-04-16T05:04:24.368Z,1920
2019-04-16T05:05:23.997Z,2060
2019-04-16T05:06:19.989Z,2220
2019-04-16T05:07:20.693Z,2428
2019-04-16T05:08:19.986Z,2612
2019-04-16T05:09:20.194Z,2784
2019-04-16T05:10:20.024Z,2920
2019-04-16T05:11:23.424Z,3076
2019-04-16T05:12:25.305Z,3224
2019-04-16T05:13:23.859Z,3324
2019-04-16T05:14:19.930Z,3420
2019-04-16T05:15:20.214Z,3568
2019-04-16T05:16:20.366Z,3708
2019-04-16T05:17:20.305Z,3860
2019-04-16T05:18:20.552Z,4036
2019-04-16T05:19:22.021Z,4184
2019-04-16T05:20:23.402Z,4328
2019-04-16T05:21:24.858Z,4424
2019-04-16T05:22:23.068Z,4504
2019-04-16T05:23:24.608Z,4560
2019-04-16T05:24:20.165Z,4576
2019-04-16T05:25:20.105Z,4452
2019-04-16T05:26:20.113Z,4152
2019-04-16T05:27:20.360Z,3804
2019-04-16T05:28:20.529Z,3588
2019-04-16T05:29:24.621Z,3476
2019-04-16T05:30:25.222Z,3440
2019-04-16T05:31:24.075Z,3460
2019-04-16T05:32:20.421Z,3504
2019-04-16T05:33:20.055Z,3548
2019-04-16T05:34:22.460Z,3604
2019-04-16T05:35:19.582Z,3664
2019-04-16T05:36:25.802Z,3724
2019-04-16T05:37:23.816Z,3764
2019-04-16T05:38:25.361Z,3824
2019-04-16T05:39:20.239Z,3880
2019-04-16T05:40:20.305Z,3928
2019-04-16T05:41:27.952Z,3976
2019-04-16T05:42:22.362Z,4004
2019-04-16T05:43:22.349Z,4056
2019-04-16T05:44:20.309Z,4104
2019-04-16T05:45:19.972Z,6780
2019-04-16T05:46:20.073Z,6952
2019-04-16T05:47:24.267Z,7188
2019-04-16T05:48:23.481Z,7356
2019-04-16T05:49:24.547Z,7452
2019-04-16T05:50:20.086Z,7468
2019-04-16T05:51:19.742Z,7524
2019-04-16T05:52:19.489Z,7556
2019-04-16T05:53:20.813Z,7928
2019-04-16T05:54:20.547Z,8160
2019-04-16T05:55:24.150Z,4248
2019-04-16T05:56:25.255Z,6820
2019-04-16T05:57:20.182Z,6460
2019-04-16T05:58:19.957Z,6080
2019-04-16T05:59:19.959Z,5820
2019-04-16T06:00:20.201Z,5616
2019-04-16T06:01:20.982Z,5412
2019-04-16T06:02:25.404Z,5216
2019-04-16T06:03:23.073Z,5108
2019-04-16T06:04:24.203Z,6076
2019-04-16T06:05:20.611Z,6052
2019-04-16T06:06:19.903Z,5016
2019-04-16T06:07:20.127Z,4876
2019-04-16T06:08:19.992Z,4972
2019-04-16T06:09:20.741Z,4952
2019-04-16T06:10:24.488Z,4956
2019-04-16T06:11:40.627Z,4952
2019-04-16T06:12:19.977Z,4976
2019-04-16T06:13:20.377Z,5056
2019-04-16T06:14:28.077Z,5228
2019-04-16T06:15:23.559Z,6492
2019-04-16T06:16:23.874Z,6800
2019-04-16T06:17:19.650Z,7076
2019-04-16T06:18:22.942Z,6288
2019-04-16T06:19:19.985Z,6352
2019-04-16T06:20:24.505Z,6600
2019-04-16T06:21:22.583Z,6868
2019-04-16T06:22:20.112Z,7248
2019-04-16T06:23:19.859Z,7636
2019-04-16T06:24:19.883Z,8124
2019-04-16T06:25:20.739Z,8372
2019-04-16T06:26:23.697Z,8508
2019-04-16T06:27:20.558Z,9548
2019-04-16T06:28:19.968Z,9584
2019-04-16T06:29:19.343Z,9012
2019-04-16T06:30:19.862Z,9208
2019-04-16T06:31:19.851Z,9432
2019-04-16T06:32:19.591Z,9476
2019-04-16T06:33:20.087Z,9448
2019-04-16T06:34:19.834Z,9552
2019-04-16T06:35:19.586Z,9624
2019-04-16T06:36:19.850Z,9528
2019-04-16T06:37:29.840Z,10096
2019-04-16T06:38:19.950Z,10392
2019-04-16T06:39:20.148Z,10544
2019-04-16T06:40:20.118Z,10492
2019-04-16T06:41:19.883Z,9992
2019-04-16T06:42:23.889Z,10036
2019-04-16T06:43:25.081Z,10128
2019-04-16T06:44:20.072Z,10216
2019-04-16T06:45:20.057Z,10248
2019-04-16T06:46:19.604Z,10336
2019-04-16T06:47:20.079Z,10328
2019-04-16T06:48:21.065Z,7544
2019-04-16T06:49:23.933Z,10464
2019-04-16T06:50:42.282Z,11072
2019-04-16T06:51:20.310Z,11136
2019-04-16T06:52:24.281Z,10876
2019-04-16T06:53:25.513Z,10804
2019-04-16T06:54:20.197Z,10804
2019-04-16T06:55:20.179Z,10840
2019-04-16T06:56:22.772Z,10924
2019-04-16T06:57:19.846Z,10952
2019-04-16T06:58:27.428Z,10964
2019-04-16T06:59:26.307Z,11248
2019-04-16T07:00:20.268Z,11304
2019-04-16T07:01:22.191Z,11408
2019-04-16T07:02:19.633Z,11456
2019-04-16T07:03:19.862Z,11800
2019-04-16T07:04:20.610Z,11812
2019-04-16T07:05:19.628Z,11952
2019-04-16T07:06:19.609Z,11952
2019-04-16T07:07:21.789Z,11940
2019-04-16T07:08:36.714Z,11600
2019-04-16T07:09:26.807Z,11688
2019-04-16T07:10:19.876Z,11784
2019-04-16T07:11:20.096Z,11788
2019-04-16T07:12:20.114Z,11808
2019-04-16T07:13:19.869Z,11868
2019-04-16T07:14:23.216Z,11920
2019-04-16T07:15:28.361Z,11948
2019-04-16T07:16:20.313Z,11976
2019-04-16T07:17:22.584Z,11928
2019-04-16T07:18:23.061Z,11572
2019-04-16T07:19:22.137Z,10840
2019-04-16T07:20:21.367Z,10048
2019-04-16T07:21:23.965Z,9496
2019-04-16T07:22:25.488Z,9164
2019-04-16T07:23:24.103Z,8912
2019-04-16T07:24:22.515Z,8640
2019-04-16T07:25:22.413Z,8324
2019-04-16T07:26:22.050Z,8156
2019-04-16T07:27:24.385Z,8084
2019-04-16T07:28:25.080Z,8020
2019-04-16T07:29:20.659Z,8000
2019-04-16T07:30:24.884Z,8064
2019-04-16T07:31:38.159Z,9024
2019-04-16T07:32:20.576Z,9372
2019-04-16T07:33:19.652Z,10176
2019-04-16T07:34:20.339Z,10824
2019-04-16T07:35:19.768Z,11140
2019-04-16T07:36:20.152Z,11228
2019-04-16T07:37:19.903Z,11104
2019-04-16T07:38:19.902Z,10884
2019-04-16T07:39:39.490Z,10568
2019-04-16T07:40:19.907Z,10356
2019-04-16T07:41:21.787Z,9936
2019-04-16T07:42:31.142Z,9320
2019-04-16T07:43:22.742Z,8924
2019-04-16T07:44:20.154Z,8504
2019-04-16T07:45:20.414Z,8312
2019-04-16T07:46:20.165Z,8596
2019-04-16T07:47:24.670Z,8872
2019-04-16T07:48:22.496Z,9164
2019-04-16T07:49:20.157Z,9484
2019-04-16T07:50:19.912Z,8604
2019-04-16T07:51:19.918Z,9984
2019-04-16T07:52:20.175Z,10072
2019-04-16T07:53:21.486Z,10016
2019-04-16T07:54:23.805Z,9912
2019-04-16T07:55:19.913Z,9836
2019-04-16T07:56:20.068Z,10172
2019-04-16T07:57:20.381Z,10488
2019-04-16T07:58:20.175Z,10588
2019-04-16T07:59:20.172Z,10612
2019-04-16T08:00:20.979Z,10560
2019-04-16T08:01:23.445Z,10532
2019-04-16T08:02:25.749Z,10664
2019-04-16T08:03:19.936Z,10672
2019-04-16T08:04:37.846Z,10616
2019-04-16T08:05:20.179Z,10524
2019-04-16T08:06:21.369Z,10516
2019-04-16T08:07:25.139Z,10500
2019-04-16T08:08:24.265Z,10500
2019-04-16T08:09:19.951Z,10468
2019-04-16T08:10:24.255Z,10476
2019-04-16T08:11:22.830Z,10476
2019-04-16T08:12:36.728Z,10104
2019-04-16T08:13:21.106Z,8324
2019-04-16T08:14:21.652Z,10376
2019-04-16T08:15:22.481Z,10352
2019-04-16T08:16:19.972Z,10308
2019-04-16T08:17:20.235Z,10244
2019-04-16T08:18:20.137Z,10248
2019-04-16T08:19:35.964Z,10348
2019-04-16T08:20:24.941Z,10320
2019-04-16T08:21:22.435Z,10280
2019-04-16T08:22:23.255Z,10168
2019-04-16T08:23:24.124Z,9684
2019-04-16T08:24:24.286Z,10136
2019-04-16T08:25:20.251Z,10088
2019-04-16T08:26:20.813Z,10056
2019-04-16T08:27:24.975Z,9996
2019-04-16T08:28:20.246Z,9908
2019-04-16T08:29:19.776Z,9484
2019-04-16T08:30:20.027Z,9504
2019-04-16T08:31:20.194Z,8788
2019-04-16T08:32:25.690Z,9516
2019-04-16T08:33:20.271Z,9384
2019-04-16T08:34:20.032Z,9648
2019-04-16T08:35:20.276Z,9732
2019-04-16T08:36:20.043Z,9608
2019-04-16T08:37:20.034Z,9388
2019-04-16T08:38:19.813Z,9296
2019-04-16T08:39:20.062Z,9036
2019-04-16T08:40:20.311Z,9044
2019-04-16T08:41:27.035Z,9160
2019-04-16T08:42:24.123Z,9216
2019-04-16T08:43:20.072Z,9164
2019-04-16T08:44:20.094Z,9296
2019-04-16T08:45:23.064Z,9376
2019-04-16T08:46:20.506Z,9452
2019-04-16T08:47:20.329Z,9520
2019-04-16T08:48:24.192Z,9532
2019-04-16T08:49:27.027Z,9560
2019-04-16T08:50:20.320Z,9564
2019-04-16T08:51:39.517Z,9572
2019-04-16T08:52:20.545Z,9528
2019-04-16T08:53:21.222Z,9540
2019-04-16T08:54:24.922Z,9496
2019-04-16T08:55:25.418Z,9460
2019-04-16T08:56:20.324Z,9548
2019-04-16T08:57:20.074Z,9444
2019-04-16T08:58:20.104Z,9592
2019-04-16T08:59:19.849Z,9616
2019-04-16T09:00:22.470Z,9500
2019-04-16T09:01:28.372Z,9412
2019-04-16T09:02:19.828Z,9576
2019-04-16T09:03:22.652Z,9584
2019-04-16T09:04:20.321Z,9632
2019-04-16T09:05:20.174Z,9664
2019-04-16T09:06:21.896Z,9656
2019-04-16T09:07:25.313Z,9648
2019-04-16T09:08:24.346Z,9664
2019-04-16T09:09:29.308Z,9640
2019-04-16T09:10:32.588Z,9492
2019-04-16T09:11:37.565Z,9628
2019-04-16T09:12:20.490Z,9632
2019-04-16T09:13:22.170Z,9688
2019-04-16T09:14:28.060Z,9656
2019-04-16T09:15:20.323Z,9700
2019-04-16T09:16:19.818Z,9744
2019-04-16T09:17:20.340Z,9768
2019-04-16T09:18:20.328Z,9724
2019-04-16T09:19:20.099Z,9392
2019-04-16T09:20:23.013Z,9664
2019-04-16T09:21:20.381Z,9640
2019-04-16T09:22:23.805Z,9524
2019-04-16T09:23:22.730Z,9564
2019-04-16T09:25:20.103Z,9592
2019-04-16T09:26:27.405Z,9548
2019-04-16T09:27:18.018Z,9508
2019-04-16T09:28:33.577Z,9460
2019-04-16T09:29:17.196Z,9436
2019-04-16T09:30:21.857Z,9380
2019-04-16T09:31:13.747Z,9336
2019-04-16T09:32:14.080Z,9304
2019-04-16T09:33:13.992Z,9324
2019-04-16T09:34:14.002Z,9288
2019-04-16T09:35:24.635Z,9248
2019-04-16T09:36:14.006Z,9156
2019-04-16T09:37:13.732Z,9104
2019-04-16T09:38:19.119Z,9052
2019-04-16T09:39:14.032Z,9040
2019-04-16T09:40:24.853Z,8996
2019-04-16T09:41:13.999Z,8956
2019-04-16T09:42:13.958Z,8900
2019-04-16T09:43:24.013Z,8868
2019-04-16T09:44:14.010Z,8844
2019-04-16T09:45:14.002Z,8824
2019-04-16T09:46:52.372Z,8812
2019-04-16T09:47:13.723Z,8824
2019-04-16T09:48:13.722Z,8784
2019-04-16T09:49:13.722Z,8756
2019-04-16T09:50:18.659Z,8716
2019-04-16T09:51:18.612Z,8700
2019-04-16T09:52:14.028Z,8672
2019-04-16T09:53:14.348Z,8556
2019-04-16T09:54:19.882Z,8572
2019-04-16T09:55:15.133Z,8556
2019-04-16T09:56:14.002Z,8516
2019-04-16T09:57:13.747Z,8472
2019-04-16T09:58:14.201Z,7516
2019-04-16T09:59:19.514Z,8420
2019-04-16T10:00:16.790Z,8380
2019-04-16T10:01:14.008Z,8352
2019-04-16T10:02:13.756Z,8320
2019-04-16T10:03:13.758Z,8292
2019-04-16T10:04:13.807Z,8252
2019-04-16T10:05:14.011Z,8144
2019-04-16T10:06:13.763Z,7956
2019-04-16T10:07:13.798Z,8212
2019-04-16T10:08:19.377Z,8220
2019-04-16T10:09:19.710Z,8216
2019-04-16T10:10:13.768Z,8216
2019-04-16T10:11:13.574Z,8212
2019-04-16T10:12:15.380Z,8192
2019-04-16T10:13:14.292Z,8196
2019-04-16T10:14:13.589Z,8188
2019-04-16T10:15:14.043Z,8188
2019-04-16T10:16:16.463Z,8116
2019-04-16T10:17:13.762Z,8264
2019-04-16T10:18:14.067Z,8264
2019-04-16T10:19:15.976Z,8260
2019-04-16T10:20:14.050Z,8292
2019-04-16T10:21:18.222Z,8300
2019-04-16T10:22:14.040Z,8332
2019-04-16T10:23:14.062Z,8328
2019-04-16T10:24:16.090Z,8340
2019-04-16T10:25:14.074Z,8344
2019-04-16T10:26:14.043Z,8328
2019-04-16T10:27:14.067Z,8320
2019-04-16T10:28:13.823Z,8300
2019-04-16T10:29:14.055Z,8284
2019-04-16T10:30:13.575Z,8276
2019-04-16T10:31:14.065Z,8248
2019-04-16T10:32:13.556Z,8224
2019-04-16T10:33:13.816Z,8200
2019-04-16T10:34:13.561Z,8176
2019-04-16T10:35:13.823Z,8132
2019-04-16T10:36:13.782Z,8112
2019-04-16T10:37:13.819Z,8100
2019-04-16T10:38:16.428Z,8092
2019-04-16T10:39:14.085Z,8084
2019-04-16T10:40:13.821Z,8060
2019-04-16T10:41:13.805Z,8072
2019-04-16T10:42:13.899Z,8072
2019-04-16T10:43:14.129Z,8056
2019-04-16T10:44:13.792Z,8016
2019-04-16T10:45:13.558Z,7972
2019-04-16T10:46:16.755Z,7908
2019-04-16T10:47:19.779Z,7844
2019-04-16T10:48:13.797Z,7752
2019-04-16T10:49:13.808Z,7616
2019-04-16T10:50:14.098Z,7360
2019-04-16T10:51:17.813Z,7128
2019-04-16T10:52:13.808Z,7648
2019-04-16T10:53:14.057Z,7640
2019-04-16T10:54:14.078Z,7604
2019-04-16T10:55:20.862Z,7564
2019-04-16T10:56:14.095Z,7548
2019-04-16T10:57:17.227Z,7536
2019-04-16T10:58:14.109Z,7516
2019-04-16T10:59:14.086Z,7492
2019-04-16T11:00:13.595Z,7480
2019-04-16T11:01:13.952Z,7460
2019-04-16T11:02:16.898Z,7428
2019-04-16T11:03:13.583Z,7428
2019-04-16T11:04:15.063Z,7408
2019-04-16T11:05:15.191Z,7376
2019-04-16T11:06:13.836Z,7344
2019-04-16T11:07:13.337Z,7324
2019-04-16T11:08:14.995Z,7308
2019-04-16T11:09:13.832Z,7316
2019-04-16T11:10:16.633Z,7308
2019-04-16T11:11:13.842Z,7304
2019-04-16T11:12:14.058Z,7292
2019-04-16T11:13:15.500Z,7224
2019-04-16T11:14:13.835Z,7108
2019-04-16T11:15:13.863Z,7292
2019-04-16T11:16:13.876Z,7280
2019-04-16T11:17:13.872Z,7292
2019-04-16T11:18:14.123Z,7296
2019-04-16T11:19:14.348Z,7284
2019-04-16T11:20:13.889Z,7268
2019-04-16T11:21:13.989Z,7240
2019-04-16T11:22:13.850Z,7244
2019-04-16T11:23:15.214Z,7244
2019-04-16T11:24:15.713Z,7236
2019-04-16T11:25:14.086Z,7216
2019-04-16T11:26:14.022Z,7236
2019-04-16T11:27:14.030Z,7272
2019-04-16T11:28:16.699Z,7256
2019-04-16T11:29:14.107Z,7256
2019-04-16T11:30:13.757Z,7264
2019-04-16T11:31:14.091Z,7276
2019-04-16T11:32:14.529Z,7272
2019-04-16T11:33:13.852Z,7272
2019-04-16T11:34:13.612Z,7352
2019-04-16T11:35:20.217Z,7360
2019-04-16T11:36:30.507Z,7384
2019-04-16T11:37:15.955Z,7408
2019-04-16T11:38:17.139Z,7380
2019-04-16T11:39:14.138Z,7360
2019-04-16T11:40:14.117Z,7336
2019-04-16T11:41:13.930Z,7360
2019-04-16T11:42:14.111Z,7360
2019-04-16T11:43:14.393Z,7348
2019-04-16T11:44:22.165Z,7336
2019-04-16T11:45:14.281Z,7348
2019-04-16T11:46:14.097Z,7344
2019-04-16T11:47:13.824Z,7408
2019-04-16T11:48:14.069Z,7336
2019-04-16T11:49:14.566Z,7216
2019-04-16T11:50:13.978Z,7184
2019-04-16T11:51:13.912Z,7368
2019-04-16T11:52:13.581Z,7512
2019-04-16T11:53:14.534Z,7556
2019-04-16T11:54:16.554Z,7576
2019-04-16T11:55:14.396Z,7416
2019-04-16T11:56:14.071Z,7600
2019-04-16T11:57:18.041Z,6400
2019-04-16T11:58:14.241Z,7436
2019-04-16T11:59:13.570Z,7584
2019-04-16T12:00:15.856Z,7636
2019-04-16T12:01:14.148Z,7740
2019-04-16T12:02:13.939Z,7780
2019-04-16T12:03:14.160Z,7772
2019-04-16T12:04:19.616Z,7776
2019-04-16T12:05:14.063Z,7740
2019-04-16T12:06:29.406Z,7572
2019-04-16T12:07:14.369Z,7536
2019-04-16T12:08:14.394Z,7696
2019-04-16T12:09:14.159Z,7728
2019-04-16T12:10:14.664Z,7728
2019-04-16T12:11:14.115Z,7716
2019-04-16T12:12:13.836Z,7764
2019-04-16T12:13:14.840Z,7728
2019-04-16T12:14:34.615Z,7740
2019-04-16T12:15:14.147Z,7796
2019-04-16T12:16:14.257Z,7824
2019-04-16T12:17:13.854Z,7948
2019-04-16T12:18:13.462Z,8048
2019-04-16T12:19:13.661Z,8160
2019-04-16T12:20:14.064Z,8156
2019-04-16T12:21:14.338Z,8300
2019-04-16T12:22:13.897Z,8640
2019-04-16T12:23:13.924Z,8640
2019-04-16T12:24:13.873Z,8728
2019-04-16T12:25:14.167Z,9080
2019-04-16T12:26:17.019Z,9128
2019-04-16T12:27:14.389Z,8220
2019-04-16T12:28:19.271Z,7824
2019-04-16T12:29:14.404Z,7852
2019-04-16T12:30:14.182Z,8764
2019-04-16T12:31:16.514Z,7880
2019-04-16T12:32:14.477Z,7524
2019-04-16T12:33:18.719Z,7668
2019-04-16T12:34:14.171Z,7624
2019-04-16T12:35:14.470Z,7548
2019-04-16T12:36:18.300Z,7480
2019-04-16T12:37:13.380Z,7476
2019-04-16T12:38:23.303Z,7776
2019-04-16T12:39:18.316Z,7856
2019-04-16T12:40:18.553Z,8220
2019-04-16T12:41:13.658Z,8200
2019-04-16T12:42:14.196Z,8264
2019-04-16T12:43:19.593Z,8168
2019-04-16T12:44:14.160Z,8308
2019-04-16T12:45:16.846Z,8396
2019-04-16T12:46:13.898Z,7660
2019-04-16T12:47:14.221Z,7628
2019-04-16T12:48:13.734Z,7388
2019-04-16T12:49:13.402Z,7400
2019-04-16T12:50:16.690Z,7440
2019-04-16T12:51:14.217Z,7488
2019-04-16T12:52:22.250Z,7624
2019-04-16T12:53:14.262Z,7368
2019-04-16T12:54:13.922Z,7244
2019-04-16T12:55:13.713Z,7248
2019-04-16T12:56:16.378Z,7304
2019-04-16T12:57:18.850Z,7504
2019-04-16T12:58:13.421Z,7700
2019-04-16T12:59:13.834Z,8108
2019-04-16T13:00:14.232Z,7932
2019-04-16T13:01:13.728Z,8368
2019-04-16T13:02:19.627Z,8564
2019-04-16T13:03:19.065Z,8984
2019-04-16T13:04:13.825Z,8736
2019-04-16T13:05:13.835Z,8904
2019-04-16T13:06:14.079Z,8820
2019-04-16T13:07:13.854Z,8672
2019-04-16T13:08:13.826Z,8596
2019-04-16T13:09:13.337Z,8484
2019-04-16T13:10:13.596Z,8420
2019-04-16T13:11:16.110Z,8384
2019-04-16T13:12:16.963Z,8392
2019-04-16T13:13:14.078Z,8408
2019-04-16T13:14:14.856Z,8416
2019-04-16T13:15:14.070Z,8444
2019-04-16T13:16:14.297Z,8508
2019-04-16T13:17:15.056Z,8608
2019-04-16T13:18:14.264Z,8688
2019-04-16T13:19:14.070Z,8708
2019-04-16T13:20:13.916Z,8688
2019-04-16T13:21:13.594Z,8664
2019-04-16T13:22:13.610Z,8656
2019-04-16T13:23:13.966Z,8580
2019-04-16T13:24:13.902Z,8420
2019-04-16T13:25:14.218Z,8380
2019-04-16T13:26:18.874Z,8428
2019-04-16T13:27:14.322Z,8548
2019-04-16T13:28:13.819Z,8652
2019-04-16T13:29:16.807Z,8744
2019-04-16T13:30:13.676Z,8840
2019-04-16T13:31:13.598Z,8924
2019-04-16T13:32:14.214Z,8964
2019-04-16T13:33:14.163Z,8956
2019-04-16T13:34:18.263Z,8916
2019-04-16T13:35:14.167Z,8932
2019-04-16T13:36:13.962Z,8964
2019-04-16T13:37:14.078Z,9032
2019-04-16T13:38:16.706Z,9148
2019-04-16T13:39:13.836Z,9284
2019-04-16T13:40:14.108Z,9384
2019-04-16T13:41:13.601Z,9376
2019-04-16T13:42:13.622Z,9364
2019-04-16T13:43:14.379Z,9404